createdAt,value
2023-03-02T00:00:54.157Z,0.59
2023-03-02T00:01:54.132Z,0.60
2023-03-02T00:02:54.184Z,0.60
2023-03-02T00:03:54.180Z,0.60
2023-03-02T00:04:54.067Z,0.62
2023-03-02T00:05:54.036Z,0.62
2023-03-02T00:06:54.009Z,0.60
2023-03-02T00:07:54.009Z,0.59
2023-03-02T00:08:53.965Z,0.58
2023-03-02T00:09:53.934Z,0.58
2023-03-02T00:10:53.907Z,0.56
2023-03-02T00:11:53.893Z,0.58
2023-03-02T00:12:53.866Z,0.57
2023-03-02T00:13:53.837Z,0.57
2023-03-02T00:14:53.796Z,0.59
2023-03-02T00:15:53.803Z,0.58
2023-03-02T00:16:53.744Z,0.58
2023-03-02T00:17:53.712Z,0.58
2023-03-02T00:18:53.680Z,0.58
2023-03-02T00:19:53.667Z,0.57
2023-03-02T00:20:53.632Z,0.57
2023-03-02T00:21:53.602Z,0.58
2023-03-02T00:22:53.576Z,0.58
2023-03-02T00:23:53.535Z,0.57
2023-03-02T00:24:53.506Z,0.59
2023-03-02T00:25:53.481Z,0.58
2023-03-02T00:26:53.450Z,0.58
2023-03-02T00:27:53.424Z,0.58
2023-03-02T00:28:53.386Z,0.58
2023-03-02T00:29:53.383Z,0.59
2023-03-02T00:30:53.335Z,0.58
2023-03-02T00:31:53.466Z,0.60
2023-03-02T00:32:53.276Z,0.59
2023-03-02T00:33:53.251Z,0.60
2023-03-02T00:34:53.233Z,0.61
2023-03-02T00:35:53.265Z,0.60
2023-03-02T00:36:53.170Z,0.60
2023-03-02T00:37:53.147Z,0.61
2023-03-02T00:38:53.113Z,0.60
2023-03-02T00:39:53.081Z,0.58
2023-03-02T00:40:53.059Z,0.57
2023-03-02T00:41:53.020Z,0.55
2023-03-02T00:42:52.989Z,0.58
2023-03-02T00:43:52.975Z,0.60
2023-03-02T00:44:52.986Z,0.58
2023-03-02T00:45:52.897Z,0.58
2023-03-02T00:46:53.027Z,0.57
2023-03-02T00:47:52.855Z,0.58
2023-03-02T00:48:52.833Z,0.59
2023-03-02T00:49:52.832Z,0.58
2023-03-02T00:50:52.767Z,0.56
2023-03-02T00:51:52.724Z,0.55
2023-03-02T00:52:52.697Z,0.56
2023-03-02T00:53:52.696Z,0.55
2023-03-02T00:54:52.647Z,0.54
2023-03-02T00:55:52.623Z,0.54
2023-03-02T00:56:52.596Z,0.54
2023-03-02T00:57:52.563Z,0.53
2023-03-02T00:58:52.541Z,0.53
2023-03-02T00:59:52.504Z,0.51
2023-03-02T01:00:52.480Z,0.51
2023-03-02T01:01:52.550Z,0.52
2023-03-02T01:02:52.501Z,0.52
2023-03-02T01:03:52.405Z,0.53
2023-03-02T01:04:52.387Z,0.52
2023-03-02T01:05:52.368Z,0.51
2023-03-02T05:39:43.582Z,1.74
2023-03-02T05:40:43.541Z,1.71
2023-03-02T05:41:43.516Z,1.73
2023-03-02T05:42:43.481Z,1.74
2023-03-02T05:43:43.463Z,1.77
2023-03-02T05:44:43.413Z,1.77
2023-03-02T05:45:43.384Z,1.75
2023-03-02T05:46:43.385Z,1.74
2023-03-02T05:47:43.314Z,1.77
2023-03-02T05:48:43.292Z,1.82
2023-03-02T05:49:43.251Z,1.83
2023-03-02T05:50:43.226Z,1.83
2023-03-02T05:51:43.184Z,1.80
2023-03-02T05:52:43.150Z,1.83
2023-03-02T05:53:43.121Z,1.80
2023-03-02T05:54:43.095Z,1.79
2023-03-02T05:55:43.087Z,1.79
2023-03-02T05:56:43.056Z,1.78
2023-03-02T05:57:43.000Z,1.80
2023-03-02T05:58:42.964Z,1.78
2023-03-02T05:59:42.937Z,1.77
2023-03-02T06:00:42.907Z,1.79
2023-03-02T06:01:42.924Z,1.78
2023-03-02T06:02:42.896Z,1.80
2023-03-02T06:03:42.826Z,1.78
2023-03-02T06:04:42.791Z,1.76
2023-03-02T06:05:42.768Z,1.71
2023-03-02T06:06:42.733Z,1.75
2023-03-02T06:07:42.707Z,1.73
2023-03-02T06:08:42.670Z,1.66
2023-03-02T06:09:42.634Z,1.65
2023-03-02T06:10:42.605Z,1.63
2023-03-02T06:11:42.579Z,1.64
2023-03-02T06:12:42.542Z,1.59
2023-03-02T06:13:42.506Z,1.59
2023-03-02T06:14:42.472Z,1.39
2023-03-02T06:15:42.455Z,1.30
2023-03-02T06:16:42.557Z,1.26
2023-03-02T06:17:42.405Z,1.19
2023-03-02T06:18:42.363Z,1.13
2023-03-02T06:36:43.263Z,1.45
2023-03-02T07:47:38.967Z,35.94
2023-03-02T07:48:38.943Z,28.74
2023-03-02T07:49:38.872Z,14.20
2023-03-02T07:50:38.823Z,10.66
2023-03-02T07:51:38.889Z,7.10
2023-03-02T07:52:38.742Z,6.15
2023-03-02T07:53:38.703Z,5.24
2023-03-02T07:54:38.657Z,4.18
2023-03-02T07:55:38.617Z,3.02
2023-03-02T07:56:38.583Z,2.09
2023-03-02T07:57:38.574Z,1.68
2023-03-02T07:58:38.516Z,1.88
2023-03-02T07:59:38.451Z,2.35
2023-03-02T08:00:38.402Z,2.91
2023-03-02T08:01:38.414Z,3.04
2023-03-02T08:02:38.364Z,2.62
2023-03-02T08:03:38.281Z,1.87
2023-03-02T08:04:38.229Z,1.30
2023-03-02T08:05:38.179Z,1.06
2023-03-02T08:06:38.157Z,0.94
2023-03-02T08:07:38.135Z,0.85
2023-03-02T08:08:38.078Z,0.62
2023-03-02T08:09:38.052Z,0.60
2023-03-02T08:10:37.996Z,0.54
2023-03-02T08:11:37.940Z,0.61
2023-03-02T08:12:37.903Z,0.88
2023-03-02T08:13:37.878Z,1.11
2023-03-02T08:14:37.822Z,1.40
2023-03-02T08:15:37.774Z,1.70
2023-03-02T08:16:37.785Z,2.10
2023-03-02T08:17:37.676Z,2.53
2023-03-02T08:18:37.637Z,2.96
2023-03-02T08:19:37.595Z,3.72
2023-03-02T08:20:37.565Z,4.43
2023-03-02T08:21:37.499Z,5.29
2023-03-02T08:22:37.459Z,5.87
2023-03-02T08:23:37.455Z,6.54
2023-03-02T08:24:37.367Z,7.29
2023-03-02T08:25:37.314Z,8.24
2023-03-02T08:26:37.258Z,8.91
2023-03-02T08:27:37.215Z,9.73
2023-03-02T08:28:37.159Z,9.78
2023-03-02T08:29:37.114Z,10.04
2023-03-02T08:30:37.062Z,9.84
2023-03-02T08:31:37.189Z,10.06
2023-03-02T08:32:36.988Z,6.11
2023-03-02T08:33:36.897Z,3.64
2023-03-02T08:34:36.856Z,2.40
2023-03-02T08:35:36.875Z,1.89
2023-03-02T08:36:36.801Z,1.89
2023-03-02T08:37:36.720Z,1.96
2023-03-02T08:38:36.667Z,2.15
2023-03-02T08:39:36.735Z,2.91
2023-03-02T08:40:36.575Z,5.98
2023-03-02T08:41:36.607Z,9.00
2023-03-02T08:42:36.478Z,11.56
2023-03-02T08:43:36.441Z,13.72
2023-03-02T08:44:36.405Z,14.73
2023-03-02T08:45:36.385Z,15.99
2023-03-02T08:46:36.278Z,16.69
2023-03-02T08:47:36.227Z,17.02
2023-03-02T08:48:36.182Z,18.16
2023-03-02T08:49:36.120Z,17.62
2023-03-02T08:50:36.060Z,17.23
2023-03-02T08:51:36.027Z,17.47
2023-03-02T08:52:35.994Z,19.00
2023-03-02T08:53:35.920Z,21.20
2023-03-02T08:54:35.877Z,22.87
2023-03-02T08:55:35.817Z,22.91
2023-03-02T08:56:36.107Z,23.00
2023-03-02T08:57:35.719Z,23.52
2023-03-02T08:58:35.667Z,24.50
2023-03-02T08:59:35.631Z,26.93
2023-03-02T09:00:35.571Z,27.69
2023-03-02T09:01:36.052Z,28.26
2023-03-02T09:02:35.531Z,28.26
2023-03-02T09:03:35.421Z,28.48
2023-03-02T09:04:35.410Z,28.87
2023-03-02T09:05:35.309Z,26.73
2023-03-02T09:06:35.253Z,27.17
2023-03-02T09:07:35.212Z,26.43
2023-03-02T09:08:35.166Z,26.41
2023-03-02T09:09:35.104Z,25.31
2023-03-02T09:10:35.057Z,25.75
2023-03-02T09:11:35.313Z,26.65
2023-03-02T09:12:34.974Z,26.52
2023-03-02T09:13:34.918Z,27.89
2023-03-02T09:14:34.839Z,28.30
2023-03-02T09:15:34.826Z,27.52
2023-03-02T09:16:38.373Z,27.83
2023-03-02T09:19:22.680Z,0.50
2023-03-02T09:20:22.627Z,0.50
2023-03-02T09:21:22.609Z,0.50
2023-03-02T09:22:22.578Z,0.50
2023-03-02T09:23:22.556Z,0.50
2023-03-02T09:24:22.535Z,0.50
2023-03-02T09:25:22.530Z,0.51
2023-03-02T09:26:22.478Z,0.50
2023-03-02T09:27:22.472Z,0.51
2023-03-02T09:28:22.417Z,0.52
2023-03-02T09:29:22.400Z,0.52
2023-03-02T09:30:22.370Z,0.51
2023-03-02T10:19:21.062Z,1.15
2023-03-02T10:21:21.013Z,1.21
2023-03-02T10:22:20.995Z,1.20
2023-03-02T10:23:20.955Z,1.21
2023-03-02T10:24:20.919Z,1.22
2023-03-02T10:25:20.900Z,1.22
2023-03-02T10:26:20.877Z,1.14
2023-03-02T10:29:20.793Z,1.15
2023-03-02T10:30:20.748Z,1.15
2023-03-02T10:31:20.827Z,1.22
2023-03-02T10:32:20.806Z,1.25
2023-03-02T10:33:20.700Z,1.25
2023-03-02T10:34:20.654Z,1.22
2023-03-02T10:35:20.664Z,1.21
2023-03-02T10:36:20.953Z,1.22
2023-03-02T10:37:20.557Z,1.23
2023-03-02T10:38:20.528Z,1.27
2023-03-02T10:39:20.513Z,1.24
2023-03-02T10:40:20.469Z,1.24
2023-03-02T10:41:20.462Z,1.27
2023-03-02T10:42:20.450Z,1.27
2023-03-02T10:43:20.396Z,1.25
2023-03-02T10:44:20.365Z,1.21
2023-03-02T10:45:20.357Z,1.18
2023-03-02T10:46:20.327Z,1.18
2023-03-02T10:47:20.409Z,0.98
2023-03-02T10:48:20.234Z,0.91
2023-03-02T10:49:21.081Z,0.83
2023-03-02T10:50:20.182Z,0.85
2023-03-02T10:51:20.164Z,0.85
2023-03-02T10:52:20.137Z,0.99
2023-03-02T10:53:20.106Z,1.14
2023-03-02T10:54:20.075Z,1.11
2023-03-02T10:55:20.068Z,1.16
2023-03-02T10:56:20.052Z,1.07
2023-03-02T10:57:20.015Z,0.94
2023-03-02T10:58:19.993Z,0.96
2023-03-02T10:59:19.950Z,0.87
2023-03-02T11:00:19.942Z,0.85
2023-03-02T11:01:19.912Z,0.82
2023-03-02T11:02:19.874Z,0.86
2023-03-02T11:03:19.857Z,0.73
2023-03-02T11:04:19.911Z,0.63
2023-03-02T11:05:19.813Z,0.51
2023-03-02T11:06:19.782Z,0.49
2023-03-02T11:07:19.763Z,0.50
2023-03-02T11:08:19.765Z,0.49
2023-03-02T11:09:19.720Z,0.51
2023-03-02T11:10:19.711Z,0.51
2023-03-02T11:11:19.763Z,0.51
2023-03-02T11:12:19.653Z,0.50
2023-03-02T11:13:19.625Z,0.50
2023-03-02T11:14:19.617Z,0.50
2023-03-02T11:15:19.603Z,0.50
2023-03-02T11:16:19.624Z,0.51
2023-03-02T11:17:19.567Z,0.50
2023-03-02T11:18:19.531Z,0.50
2023-03-02T11:19:19.539Z,0.44
2023-03-02T11:20:19.503Z,0.44
2023-03-02T11:21:19.466Z,0.45
2023-03-02T11:22:19.439Z,0.41
2023-03-02T11:23:19.433Z,0.49
2023-03-02T11:24:19.399Z,0.51
2023-03-02T11:25:19.379Z,0.51
2023-03-02T11:26:19.352Z,0.51
2023-03-02T11:27:19.366Z,0.51
2023-03-02T11:28:19.340Z,0.50
2023-03-02T11:29:22.243Z,0.50
2023-03-02T11:30:19.284Z,0.51
2023-03-02T11:31:19.281Z,0.51
2023-03-02T11:32:19.303Z,0.48
2023-03-02T11:33:19.242Z,0.47
2023-03-02T11:34:19.235Z,0.45
2023-03-02T11:35:21.028Z,0.40
2023-03-02T11:36:19.151Z,0.41
2023-03-02T11:37:19.152Z,0.40
2023-03-02T11:38:19.116Z,0.39
2023-03-02T11:39:19.092Z,0.37
2023-03-02T11:40:19.073Z,0.35
2023-03-02T11:41:19.045Z,0.44
2023-03-02T11:42:19.058Z,0.50
2023-03-02T11:43:19.004Z,0.51
2023-03-02T11:44:18.990Z,0.51
2023-03-02T11:45:18.958Z,0.51
2023-03-02T11:46:22.324Z,0.50
2023-03-02T11:47:18.990Z,0.50
2023-03-02T11:48:18.893Z,0.50
2023-03-02T11:49:18.862Z,0.50
2023-03-02T11:50:18.971Z,0.49
2023-03-02T11:51:18.827Z,0.51
2023-03-02T11:52:18.801Z,0.50
2023-03-02T11:53:18.919Z,0.50
2023-03-02T11:54:18.767Z,0.51
2023-03-02T11:55:18.755Z,0.51
2023-03-02T11:56:18.735Z,0.50
2023-03-02T11:57:18.718Z,0.51
2023-03-02T11:58:18.721Z,0.51
2023-03-02T11:59:18.709Z,0.50
2023-03-02T12:00:18.679Z,0.50
2023-03-02T12:01:18.862Z,0.51
2023-03-02T12:02:18.687Z,0.51
2023-03-02T12:03:18.626Z,0.52
2023-03-02T12:04:18.604Z,0.51
2023-03-02T12:05:18.629Z,0.50
2023-03-02T12:06:18.601Z,0.53
2023-03-02T12:07:18.592Z,0.51
2023-03-02T12:08:18.572Z,0.52
2023-03-02T12:09:18.539Z,0.53
2023-03-02T12:10:18.497Z,0.53
2023-03-02T12:11:18.504Z,0.56
2023-03-02T12:12:18.511Z,0.56
2023-03-02T12:13:18.545Z,0.57
2023-03-02T12:14:18.439Z,0.57
2023-03-02T12:15:18.440Z,0.58
2023-03-02T12:16:18.467Z,0.59
2023-03-02T12:17:18.418Z,0.59
2023-03-02T12:18:18.335Z,0.59
2023-03-02T12:19:18.320Z,0.59
2023-03-02T12:20:18.294Z,0.60
2023-03-02T12:21:18.272Z,0.60
2023-03-02T12:23:18.247Z,0.58
2023-03-02T12:24:18.208Z,0.53
2023-03-02T12:25:18.176Z,0.52
2023-03-02T12:32:18.057Z,0.55
2023-03-02T12:36:17.889Z,0.64
2023-03-02T13:17:17.030Z,0.72
2023-03-02T13:18:17.029Z,0.72
2023-03-02T13:19:16.996Z,0.72
2023-03-02T13:20:16.985Z,0.73
2023-03-02T13:21:16.964Z,0.75
2023-03-02T13:23:16.913Z,0.82
2023-03-02T13:24:16.911Z,0.83
2023-03-02T13:25:16.878Z,0.87
2023-03-02T13:26:16.875Z,0.85
2023-03-02T13:27:16.895Z,0.86
2023-03-02T13:28:16.806Z,0.84
2023-03-02T13:29:16.785Z,0.84
2023-03-02T13:30:16.877Z,0.86
2023-03-02T13:31:16.821Z,0.87
2023-03-02T13:32:16.756Z,0.86
2023-03-02T13:33:16.706Z,0.86
2023-03-02T13:34:16.673Z,0.87
2023-03-02T13:35:16.650Z,0.91
2023-03-02T13:36:16.629Z,0.95
2023-03-02T13:37:16.606Z,0.98
2023-03-02T13:38:16.592Z,1.17
2023-03-02T13:39:16.596Z,1.16
2023-03-02T13:40:16.564Z,1.20
2023-03-02T13:41:16.527Z,1.21
2023-03-02T13:42:16.516Z,1.00
2023-03-02T13:43:16.510Z,1.12
2023-03-02T13:44:16.474Z,1.08
2023-03-02T13:45:16.428Z,1.01
2023-03-02T13:46:16.434Z,1.04
2023-03-02T13:47:16.384Z,1.15
2023-03-02T13:48:16.356Z,1.15
2023-03-02T13:49:16.327Z,0.96
2023-03-02T13:50:16.464Z,1.03
2023-03-02T13:51:16.294Z,0.98
2023-03-02T13:52:16.263Z,0.94
2023-03-02T13:53:16.232Z,0.88
2023-03-02T13:54:16.206Z,0.86
2023-03-02T13:55:16.192Z,0.81
2023-03-02T13:56:16.162Z,0.79
2023-03-02T13:57:16.140Z,0.91
2023-03-02T13:58:16.135Z,0.89
2023-03-02T13:59:16.099Z,1.07
2023-03-02T14:00:16.073Z,1.09
2023-03-02T14:01:16.070Z,0.99
2023-03-02T14:02:16.004Z,0.94
2023-03-02T14:03:15.986Z,0.87
2023-03-02T14:04:16.030Z,0.81
2023-03-02T14:05:16.027Z,0.84
2023-03-02T14:06:15.908Z,0.79
2023-03-02T14:07:15.881Z,0.79
2023-03-02T14:08:15.874Z,0.74
2023-03-02T14:09:15.838Z,0.76
2023-03-02T14:10:15.828Z,0.75
2023-03-02T14:11:15.790Z,0.75
2023-03-02T14:12:15.770Z,0.77
2023-03-02T14:13:15.748Z,0.71
2023-03-02T14:14:15.709Z,0.76
2023-03-02T14:15:15.826Z,0.78
2023-03-02T14:16:15.755Z,0.73
2023-03-02T14:17:15.645Z,0.74
2023-03-02T14:18:15.621Z,0.69
2023-03-02T14:19:15.586Z,0.68
2023-03-02T14:20:15.582Z,0.70
2023-03-02T14:21:15.658Z,0.69
2023-03-02T14:22:16.402Z,0.69
2023-03-02T14:23:15.511Z,0.69
2023-03-02T14:24:15.494Z,0.69
2023-03-02T14:25:15.479Z,0.67
2023-03-02T14:26:15.462Z,0.68
2023-03-02T14:27:15.425Z,0.69
2023-03-02T14:28:15.425Z,0.67
2023-03-02T14:29:15.388Z,0.68
2023-03-02T14:30:15.361Z,0.68
2023-03-02T14:31:15.386Z,0.68
2023-03-02T14:32:15.388Z,0.69
2023-03-02T14:33:15.306Z,0.68
2023-03-02T14:34:15.299Z,0.71
2023-03-02T14:35:15.267Z,0.68
2023-03-02T14:36:15.287Z,0.66
2023-03-02T14:37:15.249Z,0.65
2023-03-02T14:38:15.209Z,0.64
2023-03-02T14:39:15.198Z,0.63
2023-03-02T14:40:15.174Z,0.64
2023-03-02T14:41:15.179Z,0.63
2023-03-02T14:42:15.142Z,0.65
2023-03-02T14:43:15.120Z,0.65
2023-03-02T14:44:15.115Z,0.65
2023-03-02T14:45:15.079Z,0.65
2023-03-02T14:46:15.069Z,0.65
2023-03-02T14:47:15.044Z,0.65
2023-03-02T14:48:15.033Z,0.65
2023-03-02T14:49:14.983Z,0.65
2023-03-02T14:50:14.957Z,0.64
2023-03-02T14:51:14.957Z,0.65
2023-03-02T14:52:14.924Z,0.65
2023-03-02T14:53:14.895Z,0.65
2023-03-02T14:54:14.887Z,0.64
2023-03-02T14:55:14.889Z,0.64
2023-03-02T14:56:14.844Z,0.62
2023-03-02T14:57:14.834Z,0.65
2023-03-02T14:58:14.804Z,0.64
2023-03-02T14:59:14.795Z,0.65
2023-03-02T15:00:14.773Z,0.65
2023-03-02T15:01:14.795Z,0.64
2023-03-02T15:02:24.807Z,0.64
2023-03-02T15:04:14.685Z,0.65
2023-03-02T15:05:14.664Z,0.65
2023-03-02T15:06:14.648Z,0.64
2023-03-02T15:07:14.638Z,0.65
2023-03-02T15:08:14.644Z,0.67
2023-03-02T15:09:14.594Z,0.67
2023-03-02T15:10:14.590Z,0.64
2023-03-02T15:11:14.548Z,0.65
2023-03-02T15:12:14.545Z,0.66
2023-03-02T15:13:14.507Z,0.64
2023-03-02T15:14:14.523Z,0.64
2023-03-02T15:15:14.483Z,0.62
2023-03-02T15:16:14.536Z,0.65
2023-03-02T15:17:14.420Z,0.66
2023-03-02T16:24:13.373Z,0.87
2023-03-02T16:25:13.367Z,0.89
2023-03-02T16:26:13.356Z,0.89
2023-03-02T16:27:13.340Z,0.88
2023-03-02T16:28:13.344Z,0.90
2023-03-02T16:29:13.327Z,0.90
2023-03-02T16:30:13.312Z,0.93
2023-03-02T16:31:13.292Z,0.91
2023-03-02T16:32:13.397Z,0.94
2023-03-02T16:33:13.272Z,0.90
2023-03-02T16:34:13.262Z,0.92
2023-03-02T16:35:13.253Z,0.88
2023-03-02T16:36:13.253Z,0.89
2023-03-02T16:37:13.231Z,0.96
2023-03-02T16:38:13.217Z,0.92
2023-03-02T16:39:13.186Z,0.92
2023-03-02T16:40:13.161Z,0.92
2023-03-02T16:41:13.163Z,0.92
2023-03-02T16:42:13.132Z,0.92
2023-03-02T16:43:13.120Z,0.93
2023-03-02T16:44:13.107Z,0.90
2023-03-02T16:45:13.081Z,0.91
2023-03-02T16:46:13.084Z,0.91
2023-03-02T16:47:13.062Z,0.95
2023-03-02T16:48:13.045Z,0.97
2023-03-02T16:49:13.046Z,0.97
2023-03-02T16:50:13.028Z,0.97
2023-03-02T16:51:13.034Z,0.97
2023-03-02T16:52:13.010Z,0.98
2023-03-02T16:53:12.978Z,0.98
2023-03-02T16:54:12.971Z,0.99
2023-03-02T16:55:12.983Z,1.01
2023-03-02T16:56:12.968Z,1.02
2023-03-02T16:57:12.952Z,1.03
2023-03-02T16:58:12.945Z,1.02
2023-03-02T16:59:12.942Z,0.99
2023-03-02T17:00:12.951Z,1.03
2023-03-02T17:01:12.951Z,1.04
2023-03-02T17:02:12.939Z,1.04
2023-03-02T17:03:12.933Z,1.03
2023-03-02T17:04:12.995Z,1.01
2023-03-02T17:05:12.926Z,1.05
2023-03-02T17:06:12.923Z,1.04
2023-03-02T17:07:12.914Z,1.04
2023-03-02T17:08:12.909Z,1.03
2023-03-02T17:09:13.615Z,1.04
2023-03-02T17:10:12.901Z,1.06
2023-03-02T17:11:12.915Z,1.06
2023-03-02T17:12:12.892Z,1.06
2023-03-02T17:13:12.895Z,1.06
2023-03-02T17:14:12.899Z,1.06
2023-03-02T17:15:13.679Z,1.04
2023-03-02T17:16:12.982Z,1.06
2023-03-02T17:17:12.871Z,1.07
2023-03-02T17:18:12.858Z,1.10
2023-03-02T17:19:12.868Z,1.16
2023-03-02T17:20:12.855Z,1.16
2023-03-02T17:21:12.842Z,1.16
2023-03-02T17:22:12.844Z,1.15
2023-03-02T17:23:12.844Z,1.14
2023-03-02T17:24:12.821Z,1.12
2023-03-02T17:25:12.822Z,1.13
2023-03-02T17:26:12.811Z,1.10
2023-03-02T17:27:24.048Z,1.11
2023-03-02T17:28:13.792Z,1.12
2023-03-02T17:29:12.787Z,1.13
2023-03-02T17:30:12.781Z,1.16
2023-03-02T17:31:12.827Z,1.18
2023-03-02T17:32:12.784Z,1.23
2023-03-02T17:33:12.758Z,1.27
2023-03-02T17:34:12.744Z,1.24
2023-03-02T17:35:12.739Z,1.22
2023-03-02T17:36:12.733Z,1.22
2023-03-02T17:37:12.713Z,1.24
2023-03-02T17:38:12.703Z,1.21
2023-03-02T17:39:12.698Z,1.25
2023-03-02T17:40:12.677Z,1.25
2023-03-02T17:41:12.683Z,1.29
2023-03-02T17:42:12.672Z,1.29
2023-03-02T17:43:12.690Z,1.25
2023-03-02T17:44:12.671Z,1.29
2023-03-02T17:45:12.651Z,1.30
2023-03-02T17:46:12.701Z,1.31
2023-03-02T17:47:12.652Z,1.35
2023-03-02T17:48:12.649Z,1.38
2023-03-02T17:49:12.639Z,1.42
2023-03-02T17:50:12.651Z,1.41
2023-03-02T17:51:12.632Z,1.46
2023-03-02T17:52:12.626Z,1.48
2023-03-02T17:53:12.625Z,1.50
2023-03-02T17:54:12.634Z,1.49
2023-03-02T17:55:12.641Z,1.49
2023-03-02T17:56:12.603Z,1.50
2023-03-02T17:57:12.622Z,1.51
2023-03-02T17:58:12.589Z,1.48
2023-03-02T17:59:12.593Z,1.49
2023-03-02T18:00:12.580Z,1.49
2023-03-02T18:01:12.576Z,1.51
2023-03-02T18:02:12.578Z,1.52
2023-03-02T18:03:12.646Z,1.49
2023-03-02T18:04:12.581Z,1.49
2023-03-02T18:05:12.552Z,1.46
2023-03-02T18:06:12.536Z,1.47
2023-03-02T18:07:12.529Z,1.47
2023-03-02T18:08:12.524Z,1.49
2023-03-02T18:09:12.520Z,1.52
2023-03-02T18:10:12.518Z,1.50
2023-03-02T18:11:12.506Z,1.51
2023-03-02T18:12:12.503Z,1.52
2023-03-02T18:13:12.492Z,1.50
2023-03-02T18:14:12.491Z,1.51
2023-03-02T18:15:12.497Z,1.50
2023-03-02T18:16:12.612Z,1.51
2023-03-02T18:17:12.489Z,1.44
2023-03-02T18:18:12.470Z,1.46
2023-03-02T18:19:12.470Z,1.45
2023-03-02T18:20:12.470Z,1.42
2023-03-02T18:21:12.451Z,1.40
2023-03-02T18:22:12.442Z,1.42
2023-03-02T18:23:12.445Z,1.40
2023-03-02T18:24:12.468Z,1.40
2023-03-02T18:25:12.458Z,1.40
2023-03-02T18:26:14.037Z,1.40
2023-03-02T18:27:12.435Z,1.42
2023-03-02T18:30:12.436Z,1.42
2023-03-02T18:31:12.475Z,1.40
2023-03-02T18:32:12.485Z,1.39
2023-03-02T18:33:12.409Z,1.37
2023-03-02T18:34:12.398Z,1.36
2023-03-02T18:35:12.403Z,1.34
2023-03-02T18:36:12.391Z,1.35
2023-03-02T18:37:12.388Z,1.37
2023-03-02T18:38:12.387Z,1.34
2023-03-02T18:39:12.387Z,1.31
2023-03-02T18:40:12.379Z,1.30
2023-03-02T18:41:12.393Z,1.27
2023-03-02T18:42:12.861Z,1.27
2023-03-02T18:43:12.357Z,1.31
2023-03-02T18:44:12.349Z,1.32
2023-03-02T18:45:12.359Z,1.29
2023-03-02T18:46:12.379Z,1.27
2023-03-02T18:47:12.348Z,1.27
2023-03-02T18:48:12.361Z,1.29
